< < Back
Terminal Aerodrome Forecast


Current Version              Previous Versions:   1  2  3  4  5  6  7  8  9  

Terminal Aerodrome Forecast

562
FTUS42 KFFC 271734
TAFCSG
TAF
KCSG 271734Z 2718/2818 33015G25KT P6SM SCT045
     FM272300 33007KT P6SM SCT040
     FM280200 33004KT P6SM SKC
     FM281500 VRB03KT P6SM SKC=

Latest METAR

186
SAUS70 KWBC 271900
MTRCSG
METAR KCSG 271851Z 34017G24KT 10SM CLR 13/M03 A2996 RMK AO2 PK WND
33026/1803 SLP145 T01331033


USA.gov is the U.S. government's official web portal to all federal, state and local government web resources and services.